Québec, Quebec

10:15 EDT le 01 octobre 2014 (GMT -0400)
Ancienne-Lorette | Change Station
CLOSE
Current Station
Stations météorologiques personnelles
Location: LAncienne-Lorette, QUéBEC
Altitude: 187 ft
Stations météo à proximité

Alt. 187 ft 46.80 °N, 71.37 °W | Updated 35 seconds ago

Mostly Cloudy
Nuageux
51.6 ° F
Paraît 51.6 ° F
N
7.0
Vent Variable Vent de Est
Gusts 7.0 mph

Aujourd’hui il est prévu de faire pratiquement la même température qu’hier.

Aujourd'hui
Haut(e) -- | Bas -- ° F
--% Risque de précip.
Hier
Haut(e) -- | Bas -- ° F
Precip. -- pouce
6:44 AM 6:25 PM
Lune montante, 48% visible
Pression 30.23 pouce
Visibilité 30.0 Miles terrestres
Nuages Peu 1500 ft
Nuageux 2700 ft
Point de rosée 45 ° F
Humidité 79%
Précipitations 0.00 pouce
Profondeur de la couche neigeuse Non disponible.
UV 1 sur 12
Pollen Non disponible.
Qualité de l'air Non disponible.
Flu Activity Non disponible.
METAR CYQB 011300Z 06011G17KT 30SM FEW015 BKN027 10/06 A3022 RMK SC1SC5 SLP237

More Conditions Fewer Conditions

Pression 30.23 pouce
Visibilité 30.0 Miles terrestres
Nuages Peu 1500 ft
Nuageux 2700 ft
Point de rosée 45 ° F
Humidité 79%
Précipitations 0.00 pouce
Profondeur de la couche neigeuse Non disponible.
UV 1 sur 12
Pollen Non disponible.
Qualité de l'air Non disponible.
Flu Activity Non disponible.
METAR CYQB 011300Z 06011G17KT 30SM FEW015 BKN027 10/06 A3022 RMK SC1SC5 SLP237

More Conditions Fewer Conditions

10-Day Weather Forecast

Almanac

Astronomie

Oct. 01, 2014 Lever Coucher
Temps réel 06:44 EDT 18:25 EDT
Crépuscule civil 06:13 EDT 18:55 EDT
Crépuscule nautique 05:38 EDT 19:30 EDT
Crépuscule astronomique 05:02 EDT 20:06 EDT
Lune 13:58 EDT 23:38 EDT
Durée de lumière visible 12h 41m
Longueur du jour
11h 41m
Tomorrow will be 3m 18s shorter.
Lune montante, 48% of the Moon is Illuminated
Aujourd'hui
Lune montante
Oct 1
Premier quartier
Oct 8
Pleine lune
Oct 15
Dernier quartier
Oct 23
Nouveau

Extrêmes aujourd'hui

Country Highs Country Lows

Community

WunderPhotos

Upload Photos

1,757,952 Photos téléchargées !

Nearby

Qualité de l'air

Not available.

Épaisseur de neige

Not available.

Activité sismique

Ville Distance Mag. Time & Date
No recent earthquake activity has been reported nearby.
Minimum magnitude displayed is 2.5.

Températures des eaux côtières

Lieu Température
Aucun rapport de station

Stations météo à proximité